sensor_id;sensor_type;location;lat;lon;timestamp;P1;durP1;ratioP1;P2;durP2;ratioP2
20870;SDS011;10595;51.218;3.452;2023-02-21T00:01:49;45.67;;;23.90;;
20870;SDS011;10595;51.218;3.452;2023-02-21T00:04:34;46.03;;;24.37;;
20870;SDS011;10595;51.218;3.452;2023-02-21T00:07:20;46.17;;;26.10;;
20870;SDS011;10595;51.218;3.452;2023-02-21T00:10:05;41.13;;;23.60;;
20870;SDS011;10595;51.218;3.452;2023-02-21T00:12:50;47.07;;;24.63;;
20870;SDS011;10595;51.218;3.452;2023-02-21T00:15:34;44.03;;;23.53;;
20870;SDS011;10595;51.218;3.452;2023-02-21T00:18:19;43.30;;;23.43;;
20870;SDS011;10595;51.218;3.452;2023-02-21T00:21:04;46.30;;;24.73;;
20870;SDS011;10595;51.218;3.452;2023-02-21T00:23:49;40.20;;;22.07;;
20870;SDS011;10595;51.218;3.452;2023-02-21T00:26:34;41.40;;;21.27;;
20870;SDS011;10595;51.218;3.452;2023-02-21T00:29:19;39.40;;;22.53;;
20870;SDS011;10595;51.218;3.452;2023-02-21T00:32:03;38.60;;;21.67;;
20870;SDS011;10595;51.218;3.452;2023-02-21T00:34:48;40.40;;;22.30;;
20870;SDS011;10595;51.218;3.452;2023-02-21T00:37:33;45.33;;;24.33;;
20870;SDS011;10595;51.218;3.452;2023-02-21T00:40:18;45.30;;;23.53;;
20870;SDS011;10595;51.218;3.452;2023-02-21T00:43:03;48.50;;;23.60;;
20870;SDS011;10595;51.218;3.452;2023-02-21T00:45:48;46.87;;;23.40;;
20870;SDS011;10595;51.218;3.452;2023-02-21T00:48:32;49.30;;;24.50;;
20870;SDS011;10595;51.218;3.452;2023-02-21T00:51:17;43.97;;;23.47;;
20870;SDS011;10595;51.218;3.452;2023-02-21T00:54:02;41.53;;;22.43;;
20870;SDS011;10595;51.218;3.452;2023-02-21T00:56:46;47.80;;;21.93;;
20870;SDS011;10595;51.218;3.452;2023-02-21T00:59:31;46.67;;;22.77;;
20870;SDS011;10595;51.218;3.452;2023-02-21T01:02:16;46.10;;;22.70;;
20870;SDS011;10595;51.218;3.452;2023-02-21T01:05:01;44.87;;;23.93;;
20870;SDS011;10595;51.218;3.452;2023-02-21T01:07:46;44.17;;;22.97;;
20870;SDS011;10595;51.218;3.452;2023-02-21T01:10:31;50.70;;;23.27;;
20870;SDS011;10595;51.218;3.452;2023-02-21T01:13:15;52.87;;;23.83;;
20870;SDS011;10595;51.218;3.452;2023-02-21T01:16:00;50.70;;;23.43;;
20870;SDS011;10595;51.218;3.452;2023-02-21T01:18:45;43.93;;;22.50;;
20870;SDS011;10595;51.218;3.452;2023-02-21T01:21:29;47.93;;;22.87;;
20870;SDS011;10595;51.218;3.452;2023-02-21T01:24:14;46.43;;;22.33;;
20870;SDS011;10595;51.218;3.452;2023-02-21T01:27:00;46.60;;;21.70;;
20870;SDS011;10595;51.218;3.452;2023-02-21T01:29:46;46.87;;;22.00;;
20870;SDS011;10595;51.218;3.452;2023-02-21T01:32:31;44.43;;;20.77;;
20870;SDS011;10595;51.218;3.452;2023-02-21T01:35:16;47.43;;;22.23;;
20870;SDS011;10595;51.218;3.452;2023-02-21T01:38:01;49.70;;;22.20;;
20870;SDS011;10595;51.218;3.452;2023-02-21T01:40:46;43.93;;;21.47;;
20870;SDS011;10595;51.218;3.452;2023-02-21T01:43:30;49.70;;;21.97;;
20870;SDS011;10595;51.218;3.452;2023-02-21T01:46:16;50.00;;;22.80;;
20870;SDS011;10595;51.218;3.452;2023-02-21T01:49:05;51.87;;;21.93;;
20870;SDS011;10595;51.218;3.452;2023-02-21T01:51:51;52.73;;;23.23;;
20870;SDS011;10595;51.218;3.452;2023-02-21T01:54:37;54.07;;;22.67;;
20870;SDS011;10595;51.218;3.452;2023-02-21T01:57:23;56.07;;;24.03;;
20870;SDS011;10595;51.218;3.452;2023-02-21T02:00:08;54.70;;;22.83;;
20870;SDS011;10595;51.218;3.452;2023-02-21T02:02:55;51.67;;;21.23;;
20870;SDS011;10595;51.218;3.452;2023-02-21T02:05:41;53.10;;;22.10;;
20870;SDS011;10595;51.218;3.452;2023-02-21T02:08:27;42.40;;;20.37;;
20870;SDS011;10595;51.218;3.452;2023-02-21T02:12:02;44.47;;;20.43;;
20870;SDS011;10595;51.218;3.452;2023-02-21T02:19:46;40.93;;;18.60;;
20870;SDS011;10595;51.218;3.452;2023-02-21T02:25:13;45.80;;;20.63;;
20870;SDS011;10595;51.218;3.452;2023-02-21T02:43:08;44.00;;;20.57;;
20870;SDS011;10595;51.218;3.452;2023-02-21T02:45:36;53.10;;;21.90;;
20870;SDS011;10595;51.218;3.452;2023-02-21T02:48:14;53.10;;;21.80;;
20870;SDS011;10595;51.218;3.452;2023-02-21T02:50:41;50.43;;;21.03;;
20870;SDS011;10595;51.218;3.452;2023-02-21T02:53:10;52.73;;;22.43;;
20870;SDS011;10595;51.218;3.452;2023-02-21T02:55:38;49.23;;;22.13;;
20870;SDS011;10595;51.218;3.452;2023-02-21T02:58:05;50.50;;;21.63;;
20870;SDS011;10595;51.218;3.452;2023-02-21T03:00:33;49.43;;;21.43;;
20870;SDS011;10595;51.218;3.452;2023-02-21T03:05:27;58.03;;;24.50;;
20870;SDS011;10595;51.218;3.452;2023-02-21T03:10:44;56.40;;;23.17;;
20870;SDS011;10595;51.218;3.452;2023-02-21T03:13:12;57.83;;;22.60;;
20870;SDS011;10595;51.218;3.452;2023-02-21T03:15:51;62.43;;;25.20;;
20870;SDS011;10595;51.218;3.452;2023-02-21T03:20:51;64.23;;;23.87;;
20870;SDS011;10595;51.218;3.452;2023-02-21T03:23:18;67.47;;;25.70;;
20870;SDS011;10595;51.218;3.452;2023-02-21T03:25:46;64.97;;;25.60;;
20870;SDS011;10595;51.218;3.452;2023-02-21T03:28:13;68.20;;;26.47;;
20870;SDS011;10595;51.218;3.452;2023-02-21T03:30:40;71.27;;;26.63;;
20870;SDS011;10595;51.218;3.452;2023-02-21T03:33:06;63.53;;;26.13;;
20870;SDS011;10595;51.218;3.452;2023-02-21T03:35:32;67.30;;;25.90;;
20870;SDS011;10595;51.218;3.452;2023-02-21T03:37:58;73.40;;;27.00;;
20870;SDS011;10595;51.218;3.452;2023-02-21T03:40:26;81.30;;;28.03;;
20870;SDS011;10595;51.218;3.452;2023-02-21T03:42:53;71.97;;;25.80;;
20870;SDS011;10595;51.218;3.452;2023-02-21T03:45:19;76.30;;;27.47;;
20870;SDS011;10595;51.218;3.452;2023-02-21T03:47:45;70.17;;;25.60;;
20870;SDS011;10595;51.218;3.452;2023-02-21T03:50:12;64.13;;;25.43;;
20870;SDS011;10595;51.218;3.452;2023-02-21T03:52:38;68.20;;;26.70;;
20870;SDS011;10595;51.218;3.452;2023-02-21T03:55:04;64.47;;;26.00;;
20870;SDS011;10595;51.218;3.452;2023-02-21T03:57:30;63.97;;;26.03;;
20870;SDS011;10595;51.218;3.452;2023-02-21T03:59:56;59.10;;;24.60;;
20870;SDS011;10595;51.218;3.452;2023-02-21T04:02:23;68.40;;;23.80;;
20870;SDS011;10595;51.218;3.452;2023-02-21T04:04:49;74.27;;;26.40;;
20870;SDS011;10595;51.218;3.452;2023-02-21T04:07:15;73.50;;;27.00;;
20870;SDS011;10595;51.218;3.452;2023-02-21T04:09:42;72.60;;;25.13;;
20870;SDS011;10595;51.218;3.452;2023-02-21T04:12:08;73.93;;;27.33;;
20870;SDS011;10595;51.218;3.452;2023-02-21T04:14:34;67.93;;;26.17;;
20870;SDS011;10595;51.218;3.452;2023-02-21T04:17:00;84.77;;;29.87;;
20870;SDS011;10595;51.218;3.452;2023-02-21T04:19:26;91.20;;;30.33;;
20870;SDS011;10595;51.218;3.452;2023-02-21T04:21:52;90.87;;;29.90;;
20870;SDS011;10595;51.218;3.452;2023-02-21T04:24:18;88.97;;;30.53;;
20870;SDS011;10595;51.218;3.452;2023-02-21T04:26:44;96.60;;;32.27;;
20870;SDS011;10595;51.218;3.452;2023-02-21T04:29:10;93.53;;;30.87;;
20870;SDS011;10595;51.218;3.452;2023-02-21T04:31:37;92.23;;;30.87;;
20870;SDS011;10595;51.218;3.452;2023-02-21T04:34:03;88.20;;;29.57;;
20870;SDS011;10595;51.218;3.452;2023-02-21T04:36:29;79.10;;;28.07;;
20870;SDS011;10595;51.218;3.452;2023-02-21T04:38:55;74.43;;;26.30;;
20870;SDS011;10595;51.218;3.452;2023-02-21T04:41:21;76.53;;;25.80;;
20870;SDS011;10595;51.218;3.452;2023-02-21T04:43:47;68.83;;;24.50;;
20870;SDS011;10595;51.218;3.452;2023-02-21T04:46:14;68.20;;;25.67;;
20870;SDS011;10595;51.218;3.452;2023-02-21T04:48:44;67.47;;;23.73;;
20870;SDS011;10595;51.218;3.452;2023-02-21T04:51:13;69.10;;;23.57;;
20870;SDS011;10595;51.218;3.452;2023-02-21T04:53:40;63.13;;;23.03;;
20870;SDS011;10595;51.218;3.452;2023-02-21T04:56:06;51.60;;;20.80;;
20870;SDS011;10595;51.218;3.452;2023-02-21T04:58:32;49.53;;;19.90;;
20870;SDS011;10595;51.218;3.452;2023-02-21T05:00:58;53.83;;;20.60;;
20870;SDS011;10595;51.218;3.452;2023-02-21T05:03:24;50.60;;;20.43;;
20870;SDS011;10595;51.218;3.452;2023-02-21T05:05:50;48.67;;;19.27;;
20870;SDS011;10595;51.218;3.452;2023-02-21T05:08:16;49.47;;;19.67;;
20870;SDS011;10595;51.218;3.452;2023-02-21T05:10:42;56.80;;;21.10;;
20870;SDS011;10595;51.218;3.452;2023-02-21T05:13:10;50.40;;;20.07;;
20870;SDS011;10595;51.218;3.452;2023-02-21T05:15:36;54.10;;;19.53;;
20870;SDS011;10595;51.218;3.452;2023-02-21T05:18:02;50.43;;;19.57;;
20870;SDS011;10595;51.218;3.452;2023-02-21T05:20:28;50.27;;;19.40;;
20870;SDS011;10595;51.218;3.452;2023-02-21T05:22:54;50.67;;;19.97;;
20870;SDS011;10595;51.218;3.452;2023-02-21T05:25:21;49.30;;;20.27;;
20870;SDS011;10595;51.218;3.452;2023-02-21T05:27:48;47.67;;;18.57;;
20870;SDS011;10595;51.218;3.452;2023-02-21T05:30:15;46.37;;;17.93;;
20870;SDS011;10595;51.218;3.452;2023-02-21T05:32:41;52.93;;;19.67;;
20870;SDS011;10595;51.218;3.452;2023-02-21T05:35:08;51.83;;;19.37;;
20870;SDS011;10595;51.218;3.452;2023-02-21T05:37:35;47.77;;;17.90;;
20870;SDS011;10595;51.218;3.452;2023-02-21T05:40:01;45.80;;;18.73;;
20870;SDS011;10595;51.218;3.452;2023-02-21T05:42:29;47.33;;;18.07;;
20870;SDS011;10595;51.218;3.452;2023-02-21T05:44:55;45.20;;;17.93;;
20870;SDS011;10595;51.218;3.452;2023-02-21T05:47:21;45.50;;;17.87;;
20870;SDS011;10595;51.218;3.452;2023-02-21T05:49:47;49.67;;;17.37;;
20870;SDS011;10595;51.218;3.452;2023-02-21T05:52:14;46.23;;;17.77;;
20870;SDS011;10595;51.218;3.452;2023-02-21T05:54:40;40.37;;;17.00;;
20870;SDS011;10595;51.218;3.452;2023-02-21T05:57:06;41.03;;;15.57;;
20870;SDS011;10595;51.218;3.452;2023-02-21T05:59:32;42.97;;;17.50;;
20870;SDS011;10595;51.218;3.452;2023-02-21T06:01:58;40.23;;;15.90;;
20870;SDS011;10595;51.218;3.452;2023-02-21T06:04:24;39.13;;;16.63;;
20870;SDS011;10595;51.218;3.452;2023-02-21T06:06:50;35.37;;;15.63;;
20870;SDS011;10595;51.218;3.452;2023-02-21T06:09:17;39.30;;;16.17;;
20870;SDS011;10595;51.218;3.452;2023-02-21T06:11:43;37.90;;;15.27;;
20870;SDS011;10595;51.218;3.452;2023-02-21T06:14:14;38.13;;;15.07;;
20870;SDS011;10595;51.218;3.452;2023-02-21T06:16:40;41.60;;;16.40;;
20870;SDS011;10595;51.218;3.452;2023-02-21T06:19:07;38.23;;;17.10;;
20870;SDS011;10595;51.218;3.452;2023-02-21T06:21:34;36.30;;;15.63;;
20870;SDS011;10595;51.218;3.452;2023-02-21T06:24:00;41.73;;;15.73;;
20870;SDS011;10595;51.218;3.452;2023-02-21T06:26:26;36.40;;;15.63;;
20870;SDS011;10595;51.218;3.452;2023-02-21T06:28:52;36.63;;;15.47;;
20870;SDS011;10595;51.218;3.452;2023-02-21T06:31:19;34.90;;;15.07;;
20870;SDS011;10595;51.218;3.452;2023-02-21T06:33:45;41.43;;;16.80;;
20870;SDS011;10595;51.218;3.452;2023-02-21T06:36:13;39.60;;;16.87;;
20870;SDS011;10595;51.218;3.452;2023-02-21T06:38:39;40.17;;;15.77;;
20870;SDS011;10595;51.218;3.452;2023-02-21T06:41:05;46.70;;;19.70;;
20870;SDS011;10595;51.218;3.452;2023-02-21T06:43:32;47.90;;;19.00;;
20870;SDS011;10595;51.218;3.452;2023-02-21T06:46:00;47.53;;;19.00;;
20870;SDS011;10595;51.218;3.452;2023-02-21T06:48:26;50.53;;;20.50;;
20870;SDS011;10595;51.218;3.452;2023-02-21T06:50:52;51.87;;;21.17;;
20870;SDS011;10595;51.218;3.452;2023-02-21T06:53:18;57.40;;;20.90;;
20870;SDS011;10595;51.218;3.452;2023-02-21T06:55:44;56.60;;;22.53;;
20870;SDS011;10595;51.218;3.452;2023-02-21T06:58:10;60.20;;;24.53;;
20870;SDS011;10595;51.218;3.452;2023-02-21T07:00:36;61.83;;;24.63;;
20870;SDS011;10595;51.218;3.452;2023-02-21T07:03:02;60.10;;;24.00;;
20870;SDS011;10595;51.218;3.452;2023-02-21T07:05:28;61.20;;;24.40;;
20870;SDS011;10595;51.218;3.452;2023-02-21T07:07:58;60.27;;;24.43;;
20870;SDS011;10595;51.218;3.452;2023-02-21T07:10:24;62.67;;;23.83;;
20870;SDS011;10595;51.218;3.452;2023-02-21T07:12:50;72.77;;;27.47;;
20870;SDS011;10595;51.218;3.452;2023-02-21T07:15:17;74.60;;;29.00;;
20870;SDS011;10595;51.218;3.452;2023-02-21T07:17:43;72.07;;;28.60;;
20870;SDS011;10595;51.218;3.452;2023-02-21T07:20:09;83.30;;;30.03;;
20870;SDS011;10595;51.218;3.452;2023-02-21T07:22:35;81.10;;;30.47;;
20870;SDS011;10595;51.218;3.452;2023-02-21T07:25:01;82.33;;;29.20;;
20870;SDS011;10595;51.218;3.452;2023-02-21T07:27:27;79.87;;;29.83;;
20870;SDS011;10595;51.218;3.452;2023-02-21T07:29:53;81.47;;;29.43;;
20870;SDS011;10595;51.218;3.452;2023-02-21T07:32:19;89.07;;;31.90;;
20870;SDS011;10595;51.218;3.452;2023-02-21T07:34:46;81.53;;;31.30;;
20870;SDS011;10595;51.218;3.452;2023-02-21T07:37:13;86.93;;;32.90;;
20870;SDS011;10595;51.218;3.452;2023-02-21T07:39:39;87.90;;;32.50;;
20870;SDS011;10595;51.218;3.452;2023-02-21T07:42:05;87.53;;;32.83;;
20870;SDS011;10595;51.218;3.452;2023-02-21T07:44:34;87.57;;;32.27;;
20870;SDS011;10595;51.218;3.452;2023-02-21T07:47:01;86.57;;;32.57;;
20870;SDS011;10595;51.218;3.452;2023-02-21T07:49:27;97.03;;;35.33;;
20870;SDS011;10595;51.218;3.452;2023-02-21T07:51:53;94.07;;;35.20;;
20870;SDS011;10595;51.218;3.452;2023-02-21T07:54:19;106.50;;;37.97;;
20870;SDS011;10595;51.218;3.452;2023-02-21T07:56:45;96.20;;;35.67;;
20870;SDS011;10595;51.218;3.452;2023-02-21T07:59:12;102.00;;;38.43;;
20870;SDS011;10595;51.218;3.452;2023-02-21T08:01:38;100.20;;;35.37;;
20870;SDS011;10595;51.218;3.452;2023-02-21T08:04:04;101.47;;;35.17;;
20870;SDS011;10595;51.218;3.452;2023-02-21T08:06:30;89.93;;;33.50;;
20870;SDS011;10595;51.218;3.452;2023-02-21T08:08:58;86.97;;;31.90;;
20870;SDS011;10595;51.218;3.452;2023-02-21T08:11:24;69.70;;;25.50;;
20870;SDS011;10595;51.218;3.452;2023-02-21T08:13:50;71.07;;;25.37;;
20870;SDS011;10595;51.218;3.452;2023-02-21T08:16:16;64.93;;;24.20;;
20870;SDS011;10595;51.218;3.452;2023-02-21T08:18:42;55.07;;;20.83;;
20870;SDS011;10595;51.218;3.452;2023-02-21T08:21:08;51.97;;;20.50;;
20870;SDS011;10595;51.218;3.452;2023-02-21T08:23:35;50.37;;;20.03;;
20870;SDS011;10595;51.218;3.452;2023-02-21T08:26:02;44.83;;;18.90;;
20870;SDS011;10595;51.218;3.452;2023-02-21T08:28:28;42.40;;;16.90;;
20870;SDS011;10595;51.218;3.452;2023-02-21T08:30:54;30.50;;;12.47;;
20870;SDS011;10595;51.218;3.452;2023-02-21T08:33:20;29.47;;;12.17;;
20870;SDS011;10595;51.218;3.452;2023-02-21T08:35:46;27.83;;;12.10;;
20870;SDS011;10595;51.218;3.452;2023-02-21T08:38:12;26.63;;;10.67;;
20870;SDS011;10595;51.218;3.452;2023-02-21T08:40:38;21.80;;;9.93;;
20870;SDS011;10595;51.218;3.452;2023-02-21T08:43:04;24.00;;;9.70;;
20870;SDS011;10595;51.218;3.452;2023-02-21T08:45:30;22.07;;;9.37;;
20870;SDS011;10595;51.218;3.452;2023-02-21T08:47:57;22.00;;;9.50;;
20870;SDS011;10595;51.218;3.452;2023-02-21T08:50:24;23.27;;;9.40;;
20870;SDS011;10595;51.218;3.452;2023-02-21T08:52:50;19.33;;;9.03;;
20870;SDS011;10595;51.218;3.452;2023-02-21T08:55:16;21.07;;;8.83;;
20870;SDS011;10595;51.218;3.452;2023-02-21T08:57:43;19.73;;;8.63;;
20870;SDS011;10595;51.218;3.452;2023-02-21T09:00:12;19.73;;;8.97;;
20870;SDS011;10595;51.218;3.452;2023-02-21T09:02:38;20.07;;;9.17;;
20870;SDS011;10595;51.218;3.452;2023-02-21T09:05:06;17.90;;;8.43;;
20870;SDS011;10595;51.218;3.452;2023-02-21T09:07:33;18.90;;;8.67;;
20870;SDS011;10595;51.218;3.452;2023-02-21T09:09:59;19.40;;;8.33;;
20870;SDS011;10595;51.218;3.452;2023-02-21T09:12:25;20.20;;;9.53;;
20870;SDS011;10595;51.218;3.452;2023-02-21T09:14:51;19.40;;;8.60;;
20870;SDS011;10595;51.218;3.452;2023-02-21T09:17:17;19.87;;;8.67;;
20870;SDS011;10595;51.218;3.452;2023-02-21T09:19:44;18.80;;;8.50;;
20870;SDS011;10595;51.218;3.452;2023-02-21T09:22:10;19.87;;;8.67;;
20870;SDS011;10595;51.218;3.452;2023-02-21T09:24:36;17.37;;;8.17;;
20870;SDS011;10595;51.218;3.452;2023-02-21T09:27:02;17.03;;;8.20;;
20870;SDS011;10595;51.218;3.452;2023-02-21T09:29:29;17.73;;;8.03;;
20870;SDS011;10595;51.218;3.452;2023-02-21T09:31:56;20.10;;;8.73;;
20870;SDS011;10595;51.218;3.452;2023-02-21T09:34:22;18.13;;;8.37;;
20870;SDS011;10595;51.218;3.452;2023-02-21T09:36:48;18.77;;;9.30;;
20870;SDS011;10595;51.218;3.452;2023-02-21T09:39:19;17.80;;;8.93;;
20870;SDS011;10595;51.218;3.452;2023-02-21T09:41:45;18.77;;;9.03;;
20870;SDS011;10595;51.218;3.452;2023-02-21T09:44:19;21.20;;;10.33;;
20870;SDS011;10595;51.218;3.452;2023-02-21T09:46:49;21.07;;;9.20;;
20870;SDS011;10595;51.218;3.452;2023-02-21T09:49:24;21.03;;;10.20;;
20870;SDS011;10595;51.218;3.452;2023-02-21T09:51:51;20.07;;;9.50;;
20870;SDS011;10595;51.218;3.452;2023-02-21T09:54:22;22.07;;;10.60;;
20870;SDS011;10595;51.218;3.452;2023-02-21T09:56:49;19.40;;;9.33;;
20870;SDS011;10595;51.218;3.452;2023-02-21T09:59:15;21.37;;;8.83;;
20870;SDS011;10595;51.218;3.452;2023-02-21T10:07:02;20.30;;;9.97;;
20870;SDS011;10595;51.218;3.452;2023-02-21T10:12:19;16.97;;;8.63;;
20870;SDS011;10595;51.218;3.452;2023-02-21T10:17:22;20.50;;;10.20;;
20870;SDS011;10595;51.218;3.452;2023-02-21T10:19:53;20.50;;;9.53;;
20870;SDS011;10595;51.218;3.452;2023-02-21T10:22:20;21.83;;;9.57;;
20870;SDS011;10595;51.218;3.452;2023-02-21T10:24:47;17.07;;;8.60;;
20870;SDS011;10595;51.218;3.452;2023-02-21T10:27:17;18.20;;;8.63;;
20870;SDS011;10595;51.218;3.452;2023-02-21T10:29:45;22.20;;;10.23;;
20870;SDS011;10595;51.218;3.452;2023-02-21T10:32:14;20.40;;;9.33;;
20870;SDS011;10595;51.218;3.452;2023-02-21T10:34:40;21.80;;;10.20;;
20870;SDS011;10595;51.218;3.452;2023-02-21T10:39:54;21.10;;;9.83;;
20870;SDS011;10595;51.218;3.452;2023-02-21T10:42:46;19.27;;;9.70;;
20870;SDS011;10595;51.218;3.452;2023-02-21T10:45:09;19.70;;;9.50;;
20870;SDS011;10595;51.218;3.452;2023-02-21T10:47:55;15.83;;;8.93;;
20870;SDS011;10595;51.218;3.452;2023-02-21T10:53:02;19.10;;;9.80;;
20870;SDS011;10595;51.218;3.452;2023-02-21T10:55:28;20.40;;;10.07;;
20870;SDS011;10595;51.218;3.452;2023-02-21T10:57:56;21.20;;;10.00;;
20870;SDS011;10595;51.218;3.452;2023-02-21T11:00:27;19.27;;;10.50;;
20870;SDS011;10595;51.218;3.452;2023-02-21T11:02:55;20.97;;;10.70;;
20870;SDS011;10595;51.218;3.452;2023-02-21T11:05:22;19.07;;;10.13;;
20870;SDS011;10595;51.218;3.452;2023-02-21T11:07:58;20.10;;;10.03;;
20870;SDS011;10595;51.218;3.452;2023-02-21T11:10:30;20.23;;;10.57;;
20870;SDS011;10595;51.218;3.452;2023-02-21T11:13:04;20.23;;;10.53;;
20870;SDS011;10595;51.218;3.452;2023-02-21T11:15:30;17.37;;;9.80;;
20870;SDS011;10595;51.218;3.452;2023-02-21T11:18:29;17.87;;;9.90;;
20870;SDS011;10595;51.218;3.452;2023-02-21T11:20:48;17.97;;;8.67;;
20870;SDS011;10595;51.218;3.452;2023-02-21T11:23:25;16.20;;;8.53;;
20870;SDS011;10595;51.218;3.452;2023-02-21T11:25:59;17.27;;;8.83;;
20870;SDS011;10595;51.218;3.452;2023-02-21T11:28:34;16.67;;;8.50;;
20870;SDS011;10595;51.218;3.452;2023-02-21T11:33:27;19.23;;;10.03;;
20870;SDS011;10595;51.218;3.452;2023-02-21T11:36:05;22.10;;;10.80;;
20870;SDS011;10595;51.218;3.452;2023-02-21T11:38:34;20.50;;;10.53;;
20870;SDS011;10595;51.218;3.452;2023-02-21T11:41:01;18.60;;;10.03;;
20870;SDS011;10595;51.218;3.452;2023-02-21T11:43:28;16.30;;;8.43;;
20870;SDS011;10595;51.218;3.452;2023-02-21T11:46:01;14.10;;;7.20;;
20870;SDS011;10595;51.218;3.452;2023-02-21T11:48:30;12.03;;;6.67;;
20870;SDS011;10595;51.218;3.452;2023-02-21T11:50:58;14.50;;;7.70;;
20870;SDS011;10595;51.218;3.452;2023-02-21T11:53:30;13.37;;;6.50;;
20870;SDS011;10595;51.218;3.452;2023-02-21T11:55:58;12.77;;;6.90;;
20870;SDS011;10595;51.218;3.452;2023-02-21T11:58:37;11.77;;;6.27;;
20870;SDS011;10595;51.218;3.452;2023-02-21T12:01:14;10.70;;;5.70;;
20870;SDS011;10595;51.218;3.452;2023-02-21T12:09:13;9.97;;;5.90;;
20870;SDS011;10595;51.218;3.452;2023-02-21T12:26:42;11.07;;;6.03;;
20870;SDS011;10595;51.218;3.452;2023-02-21T12:31:51;8.27;;;5.80;;
20870;SDS011;10595;51.218;3.452;2023-02-21T12:34:48;9.90;;;5.73;;
20870;SDS011;10595;51.218;3.452;2023-02-21T12:37:15;9.40;;;6.07;;
20870;SDS011;10595;51.218;3.452;2023-02-21T12:42:16;9.30;;;6.03;;
20870;SDS011;10595;51.218;3.452;2023-02-21T12:47:34;12.70;;;7.30;;
20870;SDS011;10595;51.218;3.452;2023-02-21T12:50:20;11.23;;;7.13;;
20870;SDS011;10595;51.218;3.452;2023-02-21T12:56:00;13.03;;;7.37;;
20870;SDS011;10595;51.218;3.452;2023-02-21T13:00:56;12.53;;;8.13;;
20870;SDS011;10595;51.218;3.452;2023-02-21T13:03:39;14.57;;;8.63;;
20870;SDS011;10595;51.218;3.452;2023-02-21T13:06:10;13.53;;;8.47;;
20870;SDS011;10595;51.218;3.452;2023-02-21T13:11:17;15.83;;;8.67;;
20870;SDS011;10595;51.218;3.452;2023-02-21T13:13:45;11.00;;;7.83;;
20870;SDS011;10595;51.218;3.452;2023-02-21T13:16:11;12.07;;;7.67;;
20870;SDS011;10595;51.218;3.452;2023-02-21T13:18:38;13.80;;;9.00;;
20870;SDS011;10595;51.218;3.452;2023-02-21T13:23:45;11.83;;;7.47;;
20870;SDS011;10595;51.218;3.452;2023-02-21T13:28:58;9.87;;;6.70;;
20870;SDS011;10595;51.218;3.452;2023-02-21T13:31:25;8.27;;;6.23;;
20870;SDS011;10595;51.218;3.452;2023-02-21T13:33:56;9.40;;;6.30;;
20870;SDS011;10595;51.218;3.452;2023-02-21T13:36:25;8.20;;;6.10;;
20870;SDS011;10595;51.218;3.452;2023-02-21T13:38:57;8.83;;;6.27;;
20870;SDS011;10595;51.218;3.452;2023-02-21T13:41:27;10.03;;;6.63;;
20870;SDS011;10595;51.218;3.452;2023-02-21T13:43:54;9.73;;;6.47;;
20870;SDS011;10595;51.218;3.452;2023-02-21T13:51:46;9.93;;;6.90;;
20870;SDS011;10595;51.218;3.452;2023-02-21T13:54:12;11.83;;;7.07;;
20870;SDS011;10595;51.218;3.452;2023-02-21T13:56:47;10.93;;;7.30;;
20870;SDS011;10595;51.218;3.452;2023-02-21T14:01:49;12.23;;;7.70;;
20870;SDS011;10595;51.218;3.452;2023-02-21T14:07:00;11.93;;;7.50;;
20870;SDS011;10595;51.218;3.452;2023-02-21T14:09:27;13.87;;;8.13;;
20870;SDS011;10595;51.218;3.452;2023-02-21T14:11:53;11.97;;;8.10;;
20870;SDS011;10595;51.218;3.452;2023-02-21T14:14:21;12.97;;;7.77;;
20870;SDS011;10595;51.218;3.452;2023-02-21T14:16:49;11.83;;;7.83;;
20870;SDS011;10595;51.218;3.452;2023-02-21T14:19:26;11.57;;;8.03;;
20870;SDS011;10595;51.218;3.452;2023-02-21T14:24:23;11.53;;;7.23;;
20870;SDS011;10595;51.218;3.452;2023-02-21T14:29:41;12.13;;;8.10;;
20870;SDS011;10595;51.218;3.452;2023-02-21T14:37:05;13.53;;;8.57;;
20870;SDS011;10595;51.218;3.452;2023-02-21T14:39:35;13.40;;;8.80;;
20870;SDS011;10595;51.218;3.452;2023-02-21T15:03:18;18.87;;;11.63;;
20870;SDS011;10595;51.218;3.452;2023-02-21T15:08:25;19.73;;;12.33;;
20870;SDS011;10595;51.218;3.452;2023-02-21T15:10:52;22.30;;;13.80;;
20870;SDS011;10595;51.218;3.452;2023-02-21T15:13:24;23.13;;;13.10;;
20870;SDS011;10595;51.218;3.452;2023-02-21T15:15:57;20.00;;;13.07;;
20870;SDS011;10595;51.218;3.452;2023-02-21T15:18:25;23.47;;;14.13;;
20870;SDS011;10595;51.218;3.452;2023-02-21T15:23:30;24.53;;;13.40;;
20870;SDS011;10595;51.218;3.452;2023-02-21T15:25:58;18.93;;;11.73;;
20870;SDS011;10595;51.218;3.452;2023-02-21T15:28:28;20.47;;;12.40;;
20870;SDS011;10595;51.218;3.452;2023-02-21T15:30:55;21.07;;;11.97;;
20870;SDS011;10595;51.218;3.452;2023-02-21T15:33:22;20.43;;;12.23;;
20870;SDS011;10595;51.218;3.452;2023-02-21T15:35:57;19.13;;;11.90;;
20870;SDS011;10595;51.218;3.452;2023-02-21T15:40:51;19.30;;;11.60;;
20870;SDS011;10595;51.218;3.452;2023-02-21T15:43:24;19.57;;;11.57;;
20870;SDS011;10595;51.218;3.452;2023-02-21T15:45:52;19.50;;;11.73;;
20870;SDS011;10595;51.218;3.452;2023-02-21T15:48:20;18.77;;;11.50;;
20870;SDS011;10595;51.218;3.452;2023-02-21T15:50:46;19.07;;;10.87;;
20870;SDS011;10595;51.218;3.452;2023-02-21T15:53:15;16.23;;;10.70;;
20870;SDS011;10595;51.218;3.452;2023-02-21T15:55:42;18.50;;;11.00;;
20870;SDS011;10595;51.218;3.452;2023-02-21T15:58:19;21.10;;;11.40;;
20870;SDS011;10595;51.218;3.452;2023-02-21T16:00:47;19.67;;;11.70;;
20870;SDS011;10595;51.218;3.452;2023-02-21T16:06:43;20.03;;;11.50;;
20870;SDS011;10595;51.218;3.452;2023-02-21T16:08:57;18.30;;;11.70;;
20870;SDS011;10595;51.218;3.452;2023-02-21T16:11:26;19.17;;;12.77;;
20870;SDS011;10595;51.218;3.452;2023-02-21T16:14:02;22.93;;;13.57;;
20870;SDS011;10595;51.218;3.452;2023-02-21T16:16:31;23.07;;;13.47;;
20870;SDS011;10595;51.218;3.452;2023-02-21T16:18:57;21.57;;;12.50;;
20870;SDS011;10595;51.218;3.452;2023-02-21T16:21:25;22.13;;;13.03;;
20870;SDS011;10595;51.218;3.452;2023-02-21T16:23:51;21.13;;;13.30;;
20870;SDS011;10595;51.218;3.452;2023-02-21T16:26:21;23.90;;;14.03;;
20870;SDS011;10595;51.218;3.452;2023-02-21T16:28:52;22.73;;;13.40;;
20870;SDS011;10595;51.218;3.452;2023-02-21T16:31:24;22.00;;;13.43;;
20870;SDS011;10595;51.218;3.452;2023-02-21T16:33:51;22.03;;;12.93;;
20870;SDS011;10595;51.218;3.452;2023-02-21T16:36:25;23.67;;;14.73;;
20870;SDS011;10595;51.218;3.452;2023-02-21T16:38:51;29.70;;;16.73;;
20870;SDS011;10595;51.218;3.452;2023-02-21T16:41:17;27.70;;;17.07;;
20870;SDS011;10595;51.218;3.452;2023-02-21T16:43:43;30.87;;;17.33;;
20870;SDS011;10595;51.218;3.452;2023-02-21T16:46:10;30.70;;;16.73;;
20870;SDS011;10595;51.218;3.452;2023-02-21T16:48:37;28.63;;;16.73;;
20870;SDS011;10595;51.218;3.452;2023-02-21T16:51:04;30.63;;;18.20;;
20870;SDS011;10595;51.218;3.452;2023-02-21T16:53:32;29.90;;;17.80;;
20870;SDS011;10595;51.218;3.452;2023-02-21T16:55:58;32.70;;;17.80;;
20870;SDS011;10595;51.218;3.452;2023-02-21T16:58:25;29.43;;;17.67;;
20870;SDS011;10595;51.218;3.452;2023-02-21T17:00:54;31.00;;;17.63;;
20870;SDS011;10595;51.218;3.452;2023-02-21T17:03:20;31.50;;;18.90;;
20870;SDS011;10595;51.218;3.452;2023-02-21T17:05:46;31.50;;;18.00;;
20870;SDS011;10595;51.218;3.452;2023-02-21T17:08:13;30.10;;;18.03;;
20870;SDS011;10595;51.218;3.452;2023-02-21T17:10:39;29.30;;;17.77;;